createdAt,value
2022-09-30T11:50:23.634Z,12.45
2022-09-30T11:53:34.263Z,13.35
2022-09-30T11:57:00.887Z,16.52
2022-09-30T12:00:19.099Z,10.38
2022-09-30T12:03:26.366Z,9.65
2022-09-30T12:06:49.533Z,11.02
2022-09-30T12:09:44.158Z,10.32
2022-09-30T12:12:33.228Z,10.50
2022-09-30T12:15:27.437Z,11.70
2022-09-30T12:18:43.439Z,11.43
2022-09-30T12:21:40.163Z,12.10
2022-09-30T12:24:40.123Z,10.98
2022-09-30T12:28:02.028Z,10.10
2022-09-30T12:30:56.544Z,10.65
2022-09-30T12:34:00.477Z,11.10
2022-09-30T12:36:51.150Z,10.05
2022-09-30T12:40:04.378Z,9.50
2022-09-30T12:43:23.705Z,9.30
2022-09-30T12:46:36.796Z,9.43
2022-09-30T12:49:26.931Z,10.65
2022-09-30T12:52:21.985Z,9.65
2022-09-30T12:55:28.303Z,9.15
2022-09-30T12:58:31.714Z,11.40
2022-09-30T13:01:28.423Z,9.65
2022-09-30T13:04:33.730Z,10.25
2022-09-30T13:11:40.106Z,9.45
2022-09-30T13:14:44.093Z,10.35
2022-09-30T13:17:36.712Z,8.40
2022-09-30T13:20:59.442Z,8.32
2022-09-30T13:23:49.226Z,9.55
2022-09-30T13:26:42.658Z,9.20
2022-09-30T13:29:40.079Z,9.48
2022-09-30T13:32:36.659Z,9.65
2022-09-30T13:35:35.912Z,9.57
2022-09-30T13:38:35.698Z,10.05
2022-09-30T13:41:26.322Z,10.00
2022-09-30T13:45:13.270Z,9.48
2022-09-30T13:48:14.735Z,9.57
2022-09-30T13:51:14.775Z,9.00
2022-09-30T13:54:11.871Z,9.95
2022-09-30T13:57:03.072Z,9.90
2022-09-30T14:00:00.639Z,10.55
2022-09-30T14:03:23.626Z,10.63
2022-09-30T14:06:23.235Z,10.85
2022-09-30T14:09:23.762Z,10.13
2022-09-30T14:12:37.496Z,9.95
2022-09-30T14:15:34.907Z,10.27
2022-09-30T14:18:47.659Z,9.48
2022-09-30T14:21:48.593Z,9.93
2022-09-30T14:24:39.568Z,9.98
2022-09-30T14:27:59.912Z,10.00
2022-09-30T14:31:08.101Z,10.00
2022-09-30T14:33:58.641Z,10.43
2022-09-30T14:36:50.947Z,10.50
2022-09-30T14:39:41.706Z,10.23
2022-09-30T14:42:34.036Z,10.98
2022-09-30T14:45:27.978Z,11.35
2022-09-30T14:48:22.384Z,11.43
2022-09-30T14:51:14.818Z,9.95
2022-09-30T14:54:05.351Z,10.75
2022-09-30T14:56:54.866Z,10.65
2022-09-30T14:59:46.587Z,10.15
2022-09-30T15:02:38.818Z,10.52
2022-09-30T15:05:28.630Z,10.32
2022-09-30T15:08:21.112Z,11.40
2022-09-30T15:11:09.658Z,11.00
2022-09-30T15:14:18.896Z,10.57
2022-09-30T15:17:22.855Z,10.93
2022-09-30T15:20:37.873Z,11.93
2022-09-30T15:23:33.865Z,11.68
2022-09-30T15:26:49.186Z,11.20
2022-09-30T15:29:38.249Z,12.23
2022-09-30T15:32:37.081Z,12.35
2022-09-30T15:35:27.094Z,11.77
2022-09-30T15:38:26.774Z,11.93
2022-09-30T15:41:15.601Z,11.82
2022-09-30T15:44:04.640Z,12.43
2022-09-30T15:47:09.165Z,13.48
2022-09-30T15:49:57.964Z,13.55
2022-09-30T15:52:47.392Z,12.90
2022-09-30T15:55:44.491Z,13.43
2022-09-30T15:58:36.208Z,13.10
2022-09-30T16:01:33.611Z,13.85
2022-09-30T16:04:26.784Z,13.23
2022-09-30T16:07:20.087Z,14.82
2022-09-30T16:10:20.822Z,13.63
2022-09-30T16:13:16.285Z,14.85
2022-09-30T16:16:15.562Z,14.77
2022-09-30T16:19:21.835Z,14.40
2022-09-30T16:22:57.507Z,13.75
2022-09-30T16:25:46.699Z,14.45
2022-09-30T16:28:35.714Z,14.95
2022-09-30T16:31:25.421Z,15.73
2022-09-30T16:34:27.214Z,15.32
2022-09-30T16:37:20.742Z,16.02
2022-09-30T16:40:25.522Z,15.65
2022-09-30T16:43:17.923Z,15.65
2022-09-30T16:46:07.688Z,15.35
2022-09-30T16:48:56.495Z,14.48
2022-09-30T16:51:45.606Z,14.88
2022-09-30T16:54:34.741Z,14.70
2022-09-30T16:57:23.857Z,16.88
2022-09-30T17:00:19.217Z,14.65
2022-09-30T17:03:08.274Z,14.48
2022-09-30T17:06:00.738Z,14.82
2022-09-30T17:08:50.373Z,15.32
2022-09-30T17:11:45.691Z,13.82
2022-09-30T17:14:34.248Z,12.93
2022-09-30T17:17:25.335Z,12.95
2022-09-30T17:20:17.102Z,13.25
2022-09-30T17:23:10.145Z,13.40
2022-09-30T17:26:01.829Z,14.65
2022-09-30T17:28:53.549Z,16.05
2022-09-30T17:31:46.692Z,14.27
2022-09-30T17:34:40.553Z,13.75
2022-09-30T17:37:32.582Z,14.60
2022-09-30T17:40:40.751Z,12.52
2022-09-30T17:43:30.037Z,13.70
2022-09-30T17:57:11.789Z,11.52
2022-09-30T18:00:00.996Z,12.52
2022-09-30T18:02:50.510Z,11.43
2022-09-30T18:05:46.213Z,13.43
2022-09-30T18:08:36.814Z,11.48
2022-09-30T18:15:37.774Z,11.68
2022-09-30T18:18:48.314Z,11.85
2022-09-30T18:21:40.158Z,12.82
2022-09-30T18:30:50.365Z,11.02
2022-09-30T18:33:42.308Z,11.73
2022-09-30T18:36:34.291Z,11.35
2022-09-30T18:39:28.697Z,10.85
2022-09-30T18:42:21.267Z,11.45
2022-09-30T18:45:12.922Z,11.68
2022-09-30T18:48:01.901Z,12.38
2022-09-30T18:51:06.415Z,11.35
2022-09-30T18:54:16.714Z,11.95
2022-09-30T18:57:07.835Z,11.80
2022-09-30T19:00:42.372Z,11.48
2022-09-30T19:03:34.251Z,12.30
2022-09-30T19:06:23.377Z,12.27
2022-09-30T19:09:19.441Z,11.73
2022-09-30T19:12:08.638Z,13.32
2022-09-30T19:14:57.127Z,12.82
2022-09-30T19:18:07.415Z,12.00
2022-09-30T19:20:56.518Z,12.38
2022-09-30T19:24:08.161Z,13.07
2022-09-30T19:26:59.676Z,12.18
2022-09-30T19:29:48.321Z,11.32
2022-09-30T19:32:37.333Z,11.02
2022-09-30T19:35:38.378Z,11.35
2022-09-30T19:38:37.602Z,12.48
2022-09-30T19:41:30.951Z,12.00
2022-09-30T19:44:21.693Z,12.07
2022-09-30T19:47:11.578Z,11.57
2022-09-30T19:50:00.822Z,12.02
2022-09-30T19:52:57.045Z,11.88
2022-09-30T19:55:51.012Z,11.40
2022-09-30T19:58:52.794Z,11.80
2022-09-30T20:01:41.920Z,12.25
2022-09-30T20:04:30.291Z,12.80
2022-09-30T20:07:19.121Z,13.35
2022-09-30T20:10:08.018Z,11.95
2022-09-30T20:12:56.586Z,12.00
2022-09-30T20:15:51.008Z,13.20
2022-09-30T20:18:41.346Z,12.95
2022-09-30T20:21:30.623Z,13.85
2022-09-30T20:24:19.641Z,13.73
2022-09-30T20:27:08.095Z,14.35
2022-09-30T20:29:56.546Z,13.02
2022-09-30T20:32:45.574Z,12.45
2022-09-30T20:35:37.111Z,12.65
2022-09-30T20:38:26.014Z,12.73
2022-09-30T20:41:17.289Z,12.00
2022-09-30T20:44:07.662Z,12.60
2022-09-30T20:46:56.149Z,11.63
2022-09-30T20:49:44.391Z,12.63
2022-09-30T20:52:32.609Z,12.82
2022-09-30T20:55:21.078Z,12.88
2022-09-30T20:58:10.445Z,13.60
2022-09-30T21:01:08.706Z,12.98
2022-09-30T21:03:57.087Z,12.65
2022-09-30T21:06:45.304Z,13.70
2022-09-30T21:09:36.780Z,12.48
2022-09-30T21:12:24.865Z,11.63
2022-09-30T21:15:13.325Z,12.90
2022-09-30T21:18:03.818Z,13.27
2022-09-30T21:20:57.679Z,13.10
2022-09-30T21:23:46.713Z,12.00
2022-09-30T21:26:35.757Z,13.27
2022-09-30T21:29:24.046Z,14.02
2022-09-30T21:32:12.563Z,12.48
2022-09-30T21:35:01.696Z,12.80
2022-09-30T21:37:52.010Z,12.77
2022-09-30T21:40:40.434Z,11.82
2022-09-30T21:43:33.185Z,13.30
2022-09-30T21:46:22.654Z,12.27
2022-09-30T21:49:21.569Z,12.80
2022-09-30T21:52:11.081Z,12.50
2022-09-30T21:54:59.102Z,13.00
2022-09-30T21:57:47.654Z,11.77
2022-09-30T22:00:36.328Z,12.98
2022-09-30T22:03:25.249Z,13.57
2022-09-30T22:06:13.594Z,13.75
2022-09-30T22:09:02.291Z,12.80
2022-09-30T22:11:50.672Z,13.23
2022-09-30T22:14:38.573Z,12.95
2022-09-30T22:17:27.030Z,13.20
2022-09-30T22:20:15.123Z,13.85
2022-09-30T22:23:03.335Z,13.15
2022-09-30T22:25:52.015Z,13.55
2022-09-30T22:28:40.436Z,14.63
2022-09-30T22:31:32.181Z,14.18
2022-09-30T22:34:41.299Z,14.15
2022-09-30T22:38:07.885Z,14.30
2022-09-30T22:40:56.490Z,14.07
2022-09-30T22:43:44.966Z,14.40
2022-09-30T22:46:34.471Z,14.65
2022-09-30T22:49:24.766Z,15.10
2022-09-30T22:52:14.303Z,14.93
2022-09-30T22:55:02.659Z,13.85
2022-09-30T22:57:51.899Z,14.70
2022-09-30T23:00:40.193Z,14.25
2022-09-30T23:03:28.658Z,14.50
2022-09-30T23:06:16.963Z,14.32
2022-09-30T23:09:06.131Z,13.82
2022-09-30T23:11:55.513Z,15.55
2022-09-30T23:14:43.361Z,14.73
2022-09-30T23:17:31.545Z,14.77
2022-09-30T23:20:20.194Z,14.65
2022-09-30T23:23:08.321Z,15.30
2022-09-30T23:26:02.934Z,14.18
2022-09-30T23:29:05.919Z,14.95
2022-09-30T23:31:54.892Z,14.77
2022-09-30T23:34:43.290Z,15.13
2022-09-30T23:37:31.338Z,14.48
2022-09-30T23:40:20.462Z,14.57
2022-09-30T23:43:08.528Z,15.48
2022-09-30T23:45:57.773Z,13.75
2022-09-30T23:48:46.091Z,14.38
2022-09-30T23:51:35.035Z,15.07
2022-09-30T23:54:23.012Z,15.00
2022-09-30T23:57:12.118Z,16.33
2022-09-30T23:59:59.873Z,14.57
